ěÝzenÝ letovÚho provozu ╚eskÚ republiky
Letiste: LKPD Aktualizace: 27.02.2024 11:59:41  UTC
 METAR LKPD 27.02. 12:00 ...
METAR LKPD 271200Z 24004KT 220V280 3400 BR OVC004 04/04 Q1013 NOSIG RMK YLO YLO=
 TAF LKPD 27.02. 11:00 ...
TAF LKPD 271100Z 2712/2812 VRB02KT 3000 BR BKN004      BECMG 2712/2715 31004KT 9999 NSW SCT020      TEMPO 2718/2812 VRB02KT 2000 DZ BR BKN004      PROB30 TEMPO 2722/2807 0500 FG VV001      BECMG 2804/2807 28006KT BKN020=